createdAt,value
2023-04-06T00:00:05.827Z,2.58
2023-04-06T00:02:40.671Z,2.78
2023-04-06T00:05:11.427Z,2.58
2023-04-06T00:07:39.526Z,2.83
2023-04-06T00:10:08.349Z,2.08
2023-04-06T00:12:36.504Z,2.10
2023-04-06T00:15:06.817Z,2.58
2023-04-06T00:17:34.983Z,3.00
2023-04-06T00:20:03.596Z,2.10
2023-04-06T00:22:31.898Z,2.58
2023-04-06T00:24:59.823Z,2.33
2023-04-06T00:27:27.898Z,2.40
2023-04-06T00:29:56.024Z,2.65
2023-04-06T00:32:24.120Z,2.50
2023-04-06T00:34:52.547Z,2.38
2023-04-06T00:37:21.070Z,2.33
2023-04-06T00:39:49.481Z,2.90
2023-04-06T00:42:17.724Z,3.20
2023-04-06T00:44:46.371Z,2.53
2023-04-06T00:47:14.838Z,2.92
2023-04-06T00:49:43.037Z,2.60
2023-04-06T00:52:11.741Z,2.10
2023-04-06T00:54:39.735Z,2.88
2023-04-06T00:57:08.940Z,2.47
2023-04-06T00:59:37.414Z,3.10
2023-04-06T01:02:08.036Z,3.17
2023-04-06T01:04:42.690Z,2.63
2023-04-06T01:07:17.404Z,3.10
2023-04-06T01:09:59.014Z,2.80
2023-04-06T01:12:29.518Z,3.13
2023-04-06T01:14:58.573Z,2.83
2023-04-06T01:17:30.038Z,3.60
2023-04-06T01:20:05.046Z,3.13
2023-04-06T01:22:34.321Z,3.22
2023-04-06T01:25:05.201Z,3.20
2023-04-06T01:27:43.882Z,3.22
2023-04-06T01:30:14.721Z,3.20
2023-04-06T01:32:51.219Z,2.70
2023-04-06T01:35:29.989Z,2.95
2023-04-06T01:38:09.410Z,3.13
2023-04-06T01:40:38.662Z,3.90
2023-04-06T01:43:07.838Z,3.33
2023-04-06T01:45:45.956Z,3.10
2023-04-06T01:48:19.900Z,3.03
2023-04-06T01:50:48.359Z,2.65
2023-04-06T01:53:22.317Z,3.22
2023-04-06T01:55:52.341Z,3.22
2023-04-06T01:58:34.742Z,3.30
2023-04-06T02:01:06.200Z,3.13
2023-04-06T02:03:46.934Z,3.70
2023-04-06T02:06:15.371Z,3.10
2023-04-06T02:08:43.583Z,2.63
2023-04-06T02:11:11.877Z,3.17
2023-04-06T02:13:48.441Z,2.90
2023-04-06T02:16:17.774Z,2.90
2023-04-06T02:18:48.182Z,3.47
2023-04-06T02:21:21.412Z,3.13
2023-04-06T02:23:50.885Z,3.40
2023-04-06T02:26:19.678Z,2.97
2023-04-06T02:28:47.926Z,3.40
2023-04-06T02:31:17.184Z,2.80
2023-04-06T02:33:46.552Z,3.30
2023-04-06T02:36:16.574Z,3.40
2023-04-06T02:38:44.876Z,2.78
2023-04-06T02:41:13.678Z,3.25
2023-04-06T02:43:41.822Z,3.13
2023-04-06T02:48:52.380Z,2.45
2023-04-06T02:51:20.519Z,2.90
2023-04-06T02:53:55.205Z,2.78
2023-04-06T02:56:23.505Z,4.05
2023-04-06T02:58:53.042Z,3.08
2023-04-06T03:01:24.008Z,3.10
2023-04-06T03:03:58.165Z,3.43
2023-04-06T03:06:28.488Z,3.30
2023-04-06T03:09:01.923Z,3.15
2023-04-06T03:11:31.026Z,3.33
2023-04-06T03:14:00.424Z,3.17
2023-04-06T03:16:28.587Z,3.03
2023-04-06T03:18:56.628Z,3.72
2023-04-06T03:21:25.040Z,3.25
2023-04-06T03:23:54.620Z,3.75
2023-04-06T03:26:23.661Z,3.90
2023-04-06T03:28:53.761Z,3.17
2023-04-06T03:31:27.025Z,3.20
2023-04-06T03:34:00.562Z,3.13
2023-04-06T03:36:33.180Z,3.67
2023-04-06T03:39:02.427Z,3.42
2023-04-06T03:41:33.441Z,3.38
2023-04-06T03:44:39.862Z,3.07
2023-04-06T03:47:08.418Z,3.55
2023-04-06T03:49:38.631Z,3.20
2023-04-06T03:52:10.724Z,3.13
2023-04-06T03:54:39.099Z,3.58
2023-04-06T03:57:07.370Z,3.83
2023-04-06T03:59:35.658Z,4.10
2023-04-06T04:05:46.986Z,3.63
2023-04-06T04:08:15.118Z,3.35
2023-04-06T04:10:43.310Z,4.45
2023-04-06T04:13:11.586Z,3.92
2023-04-06T04:15:40.955Z,4.07
2023-04-06T04:18:09.132Z,3.65
2023-04-06T04:20:37.457Z,4.07
2023-04-06T04:23:05.768Z,3.95
2023-04-06T04:25:35.492Z,3.90
2023-04-06T04:28:03.989Z,3.45
2023-04-06T04:30:33.008Z,3.70
2023-04-06T04:33:01.519Z,4.05
2023-04-06T04:35:33.070Z,3.60
2023-04-06T04:38:01.518Z,4.25
2023-04-06T04:40:29.783Z,4.20
2023-04-06T04:43:06.714Z,4.45
2023-04-06T04:45:36.611Z,4.15
2023-04-06T04:48:27.506Z,4.32
2023-04-06T04:51:02.378Z,4.00
2023-04-06T04:53:42.465Z,4.13
2023-04-06T04:56:20.732Z,3.63
2023-04-06T05:01:21.691Z,3.13
2023-04-06T05:03:50.593Z,3.97
2023-04-06T05:06:20.597Z,4.38
2023-04-06T05:08:48.724Z,4.22
2023-04-06T05:11:17.696Z,4.95
2023-04-06T05:13:54.415Z,4.40
2023-04-06T05:16:25.471Z,4.47
2023-04-06T05:18:54.398Z,4.63
2023-04-06T05:21:23.375Z,4.78
2023-04-06T05:23:57.973Z,5.05
2023-04-06T05:26:26.720Z,4.65
2023-04-06T05:28:59.861Z,5.30
2023-04-06T05:31:31.907Z,3.97
2023-04-06T05:34:01.015Z,4.60
2023-04-06T05:36:33.581Z,4.93
2023-04-06T05:39:07.068Z,5.70
2023-04-06T05:41:53.173Z,4.72
2023-04-06T05:44:39.485Z,4.80
2023-04-06T05:47:12.619Z,4.10
2023-04-06T05:49:44.194Z,4.88
2023-04-06T05:52:18.638Z,5.22
2023-04-06T05:54:49.610Z,4.83
2023-04-06T05:57:20.365Z,5.13
2023-04-06T05:59:50.552Z,6.05
2023-04-06T06:02:18.761Z,5.25
2023-04-06T06:04:50.539Z,5.65
2023-04-06T06:07:19.906Z,5.25
2023-04-06T06:09:59.472Z,5.78
2023-04-06T06:12:33.009Z,5.38
2023-04-06T06:15:02.865Z,4.90
2023-04-06T06:17:35.958Z,5.63
2023-04-06T06:20:06.979Z,5.38
2023-04-06T06:22:35.134Z,6.15
2023-04-06T06:25:04.160Z,5.55
2023-04-06T06:27:32.339Z,6.05
2023-04-06T06:30:00.796Z,5.53
2023-04-06T06:32:33.868Z,5.93
2023-04-06T06:35:02.072Z,6.20
2023-04-06T06:37:31.311Z,6.28
2023-04-06T06:40:00.110Z,5.50
2023-04-06T06:42:28.501Z,5.85
2023-04-06T06:45:10.506Z,5.80
2023-04-06T06:47:38.574Z,5.30
2023-04-06T06:50:07.579Z,5.88
2023-04-06T06:52:35.730Z,6.13
2023-04-06T06:55:04.215Z,6.22
2023-04-06T06:57:32.531Z,6.68
2023-04-06T07:00:01.399Z,5.93
2023-04-06T07:02:31.348Z,5.97
2023-04-06T07:04:59.553Z,5.70
2023-04-06T07:07:27.707Z,6.15
2023-04-06T07:09:56.060Z,5.10
2023-04-06T07:12:24.903Z,5.80
2023-04-06T07:14:54.132Z,5.93
2023-04-06T07:17:23.198Z,6.05
2023-04-06T07:19:51.909Z,6.32
2023-04-06T07:22:20.277Z,5.32
2023-04-06T07:24:48.532Z,6.20
2023-04-06T07:27:17.822Z,5.90
2023-04-06T07:29:46.801Z,7.03
2023-04-06T07:32:15.408Z,6.05
2023-04-06T07:34:43.991Z,5.30
2023-04-06T07:37:12.316Z,5.22
2023-04-06T07:39:41.720Z,5.25
2023-04-06T07:42:10.404Z,5.28
2023-04-06T07:44:39.936Z,5.40
2023-04-06T07:47:08.324Z,5.88
2023-04-06T07:49:36.583Z,5.72
2023-04-06T07:52:05.629Z,5.30
2023-04-06T07:54:34.703Z,5.05
2023-04-06T07:57:03.338Z,5.80
2023-04-06T07:59:31.577Z,5.18
2023-04-06T08:01:59.617Z,5.90
2023-04-06T08:04:27.676Z,5.20
2023-04-06T08:06:56.228Z,4.97
2023-04-06T08:09:24.374Z,4.95
2023-04-06T08:11:52.885Z,4.95
2023-04-06T08:14:21.545Z,5.18
2023-04-06T08:16:49.960Z,5.40
2023-04-06T08:19:20.150Z,5.32
2023-04-06T08:21:48.797Z,5.28
2023-04-06T08:24:17.584Z,5.55
2023-04-06T08:26:45.822Z,5.57
2023-04-06T08:29:14.232Z,5.32
2023-04-06T08:31:42.227Z,5.03
2023-04-06T08:34:12.389Z,5.22
2023-04-06T08:36:42.547Z,4.90
2023-04-06T08:39:11.232Z,5.07
2023-04-06T08:41:39.385Z,5.32
2023-04-06T08:44:07.785Z,6.18
2023-04-06T08:46:36.268Z,5.05
2023-04-06T08:49:08.228Z,4.65
2023-04-06T08:51:39.199Z,4.72
2023-04-06T08:54:07.637Z,5.32
2023-04-06T08:56:38.505Z,5.07
2023-04-06T08:59:07.551Z,4.85
2023-04-06T09:01:38.223Z,4.38
2023-04-06T09:04:11.060Z,4.45
2023-04-06T09:06:41.847Z,4.10
2023-04-06T09:09:10.737Z,4.28
2023-04-06T09:11:49.789Z,4.00
2023-04-06T09:17:08.138Z,4.68
2023-04-06T09:19:46.572Z,3.70
2023-04-06T09:22:15.172Z,4.18
2023-04-06T09:24:49.366Z,4.55
2023-04-06T09:27:18.355Z,3.90
2023-04-06T09:29:46.861Z,4.07
2023-04-06T09:32:18.318Z,3.80
2023-04-06T09:37:20.316Z,4.30
2023-04-06T09:39:50.514Z,3.42
2023-04-06T09:42:28.490Z,3.50
2023-04-06T09:44:57.442Z,3.88
2023-04-06T09:47:29.541Z,3.45
2023-04-06T09:49:59.457Z,3.45
2023-04-06T09:52:52.836Z,3.83
2023-04-06T09:55:32.295Z,3.67
2023-04-06T09:58:09.310Z,4.10
2023-04-06T10:01:03.391Z,3.45
2023-04-06T10:03:34.548Z,3.28
2023-04-06T10:06:08.200Z,3.40
2023-04-06T10:08:37.635Z,4.18
2023-04-06T10:11:07.015Z,4.07
2023-04-06T10:13:35.414Z,4.10
2023-04-06T10:16:03.742Z,4.32
2023-04-06T10:18:32.423Z,3.75
2023-04-06T10:21:09.767Z,3.97
2023-04-06T10:23:50.554Z,3.53
2023-04-06T10:26:23.098Z,3.90
2023-04-06T10:28:55.768Z,4.28
2023-04-06T10:31:28.783Z,3.45
2023-04-06T10:33:58.134Z,4.13
2023-04-06T10:36:33.729Z,4.28
2023-04-06T10:39:07.296Z,3.95
2023-04-06T10:41:44.669Z,3.58
2023-04-06T10:44:23.600Z,4.05
2023-04-06T10:47:01.873Z,4.18
2023-04-06T10:49:30.278Z,3.30
2023-04-06T10:51:58.861Z,3.65
2023-04-06T10:54:28.407Z,3.67
2023-04-06T10:56:57.756Z,4.07
2023-04-06T10:59:27.285Z,3.70
2023-04-06T11:01:57.200Z,3.40
2023-04-06T11:04:26.326Z,4.03
2023-04-06T11:06:56.299Z,3.70
2023-04-06T11:09:29.028Z,4.15
2023-04-06T11:11:58.225Z,3.90
2023-04-06T11:14:27.941Z,3.65
2023-04-06T11:16:56.450Z,4.22
2023-04-06T11:19:25.454Z,3.47
2023-04-06T11:21:54.025Z,3.53
2023-04-06T11:24:26.301Z,3.70
2023-04-06T11:26:57.559Z,3.85
2023-04-06T11:29:36.985Z,3.92
2023-04-06T11:32:07.706Z,3.22
2023-04-06T11:34:38.369Z,3.67
2023-04-06T11:39:45.186Z,3.42
2023-04-06T11:42:13.708Z,2.80
2023-04-06T11:44:47.419Z,3.78
2023-04-06T11:47:18.666Z,3.28
2023-04-06T11:49:47.491Z,3.50
2023-04-06T11:52:20.910Z,3.42
2023-04-06T11:54:50.905Z,3.53
2023-04-06T11:57:19.903Z,3.67
2023-04-06T11:59:49.001Z,3.28
2023-04-06T12:02:18.974Z,3.03
2023-04-06T12:04:48.886Z,3.13
2023-04-06T12:07:17.625Z,3.42
2023-04-06T12:09:45.805Z,3.13
2023-04-06T12:12:13.954Z,3.28
2023-04-06T12:14:42.229Z,3.30
2023-04-06T12:17:10.444Z,3.65
2023-04-06T12:19:38.745Z,3.33
2023-04-06T12:22:07.096Z,3.00
2023-04-06T12:24:35.174Z,2.85
2023-04-06T12:27:10.199Z,3.60
2023-04-06T12:29:39.720Z,3.38
2023-04-06T12:32:08.328Z,3.03
2023-04-06T12:34:36.941Z,3.08
2023-04-06T12:37:07.825Z,3.55
2023-04-06T12:39:38.343Z,3.17
2023-04-06T12:42:06.350Z,3.55
2023-04-06T12:44:37.477Z,3.10
2023-04-06T12:47:06.243Z,3.78
2023-04-06T12:49:34.325Z,3.00
2023-04-06T12:52:03.332Z,3.40
2023-04-06T12:54:31.764Z,3.42
2023-04-06T12:56:59.820Z,3.20
2023-04-06T12:59:28.452Z,3.20
2023-04-06T13:01:59.919Z,2.55
2023-04-06T13:04:28.880Z,3.17
2023-04-06T13:06:57.141Z,3.05
2023-04-06T13:09:25.522Z,3.15
2023-04-06T13:11:54.514Z,2.75
2023-04-06T13:14:22.721Z,3.00
2023-04-06T13:16:51.120Z,3.58
2023-04-06T13:19:19.794Z,2.92
2023-04-06T13:21:48.035Z,3.38
2023-04-06T13:24:17.678Z,3.75
2023-04-06T13:26:46.344Z,3.70
2023-04-06T13:29:14.710Z,3.17
2023-04-06T13:31:42.932Z,3.67
2023-04-06T13:34:11.933Z,3.35
2023-04-06T13:36:43.067Z,3.90
2023-04-06T13:39:11.740Z,3.25
2023-04-06T13:41:41.869Z,3.40
2023-04-06T13:44:09.976Z,3.28
2023-04-06T13:46:38.702Z,3.85
2023-04-06T13:49:07.520Z,3.60
2023-04-06T13:51:35.784Z,3.20
2023-04-06T13:54:04.562Z,3.20
2023-04-06T13:56:33.346Z,3.58
2023-04-06T13:59:01.961Z,3.10
2023-04-06T14:01:30.836Z,3.30
2023-04-06T14:03:59.391Z,3.50
2023-04-06T14:06:31.872Z,3.88
2023-04-06T14:09:00.937Z,3.50
2023-04-06T14:11:36.871Z,3.90
2023-04-06T14:14:04.956Z,3.50
2023-04-06T14:16:33.291Z,3.35
2023-04-06T14:19:01.725Z,3.92
2023-04-06T14:21:30.311Z,3.65
2023-04-06T14:23:59.876Z,3.42
2023-04-06T14:26:28.904Z,3.95
2023-04-06T14:28:57.100Z,3.80
2023-04-06T14:31:26.483Z,3.88
2023-04-06T14:33:54.987Z,3.05
2023-04-06T14:36:24.051Z,3.55
2023-04-06T14:38:53.451Z,3.75
2023-04-06T14:41:23.946Z,3.75
2023-04-06T14:46:23.161Z,3.20
2023-04-06T14:48:52.128Z,3.28
2023-04-06T14:51:20.417Z,3.10
2023-04-06T14:53:48.887Z,3.70
2023-04-06T14:56:23.267Z,3.28
2023-04-06T14:58:55.428Z,3.45
2023-04-06T15:01:23.568Z,4.00
2023-04-06T15:03:52.221Z,3.50
2023-04-06T15:06:22.187Z,3.78
2023-04-06T15:08:51.619Z,3.17
2023-04-06T15:11:22.550Z,3.78
2023-04-06T15:13:51.104Z,3.40
2023-04-06T15:16:19.277Z,3.72
2023-04-06T15:18:47.357Z,3.80
2023-04-06T15:21:15.349Z,3.22
2023-04-06T15:23:43.438Z,3.28
2023-04-06T15:26:11.547Z,3.50
2023-04-06T15:28:39.792Z,4.07
2023-04-06T15:31:33.121Z,3.22
2023-04-06T15:34:07.613Z,3.22
2023-04-06T15:36:36.698Z,3.25
2023-04-06T15:39:07.471Z,3.00
2023-04-06T15:41:37.004Z,4.22
2023-04-06T15:44:05.837Z,3.33
2023-04-06T15:46:33.881Z,4.07
2023-04-06T15:49:02.149Z,3.33
2023-04-06T15:51:30.991Z,3.33
2023-04-06T15:53:59.128Z,3.58
2023-04-06T15:56:27.377Z,2.90
2023-04-06T15:58:55.977Z,3.40
2023-04-06T16:01:25.714Z,3.58
2023-04-06T16:03:56.306Z,2.80
2023-04-06T16:06:24.736Z,3.60
2023-04-06T16:08:53.412Z,3.30
2023-04-06T16:11:22.583Z,3.10
2023-04-06T16:13:55.296Z,3.33
2023-04-06T16:16:24.409Z,3.20
2023-04-06T16:18:53.370Z,3.22
2023-04-06T16:21:23.336Z,2.97
2023-04-06T16:23:54.793Z,2.92
2023-04-06T16:26:24.367Z,3.08
2023-04-06T16:28:52.965Z,3.55
2023-04-06T16:31:24.668Z,3.53
2023-04-06T16:33:57.765Z,3.70
2023-04-06T16:36:27.919Z,3.25
2023-04-06T16:39:00.129Z,3.58
2023-04-06T16:41:28.935Z,3.15
2023-04-06T16:43:57.994Z,3.78
2023-04-06T16:46:38.984Z,3.42
2023-04-06T16:49:07.752Z,3.28
2023-04-06T16:51:37.222Z,3.38
2023-04-06T16:54:05.645Z,3.85
2023-04-06T16:56:34.230Z,3.47
2023-04-06T16:59:02.376Z,4.00
2023-04-06T17:01:31.252Z,3.85
2023-04-06T17:03:59.824Z,3.63
2023-04-06T17:06:28.484Z,3.30
2023-04-06T17:08:57.599Z,3.13
2023-04-06T17:11:32.663Z,3.00
2023-04-06T17:14:10.083Z,2.97
2023-04-06T17:16:38.152Z,2.90
2023-04-06T17:19:06.417Z,3.17
2023-04-06T17:21:34.959Z,3.70
2023-04-06T17:24:03.024Z,2.88
2023-04-06T17:26:31.401Z,3.47
2023-04-06T17:28:59.987Z,3.03
2023-04-06T17:31:29.028Z,3.13
2023-04-06T17:33:59.080Z,3.58
2023-04-06T17:36:30.060Z,3.83
2023-04-06T17:38:58.158Z,3.25
2023-04-06T17:41:26.900Z,3.75
2023-04-06T17:43:55.567Z,3.22
2023-04-06T17:46:23.881Z,3.47
2023-04-06T17:48:53.420Z,3.53
2023-04-06T17:51:22.099Z,3.13
2023-04-06T17:53:53.140Z,3.03
2023-04-06T17:56:22.205Z,3.35
2023-04-06T18:01:24.199Z,3.40
2023-04-06T18:03:52.649Z,3.33
2023-04-06T18:06:25.129Z,4.22
2023-04-06T18:08:55.136Z,3.58
2023-04-06T18:11:23.911Z,4.15
2023-04-06T18:13:52.889Z,3.58
2023-04-06T18:16:21.946Z,3.47
2023-04-06T18:18:53.895Z,3.88
2023-04-06T18:21:22.423Z,4.70
2023-04-06T18:23:51.035Z,3.80
2023-04-06T18:26:20.032Z,4.47
2023-04-06T18:28:49.116Z,4.28
2023-04-06T18:31:17.366Z,4.60
2023-04-06T18:33:45.992Z,4.00
2023-04-06T18:36:14.880Z,4.93
2023-04-06T18:38:45.914Z,4.63
2023-04-06T18:41:14.282Z,4.93
2023-04-06T18:43:42.751Z,4.50
2023-04-06T18:46:19.593Z,4.93
2023-04-06T18:48:48.142Z,5.22
2023-04-06T18:51:17.658Z,4.97
2023-04-06T18:53:45.922Z,4.13
2023-04-06T18:56:15.912Z,5.55
2023-04-06T18:58:44.708Z,5.25
2023-04-06T19:01:43.905Z,4.80
2023-04-06T19:04:12.299Z,4.82
2023-04-06T19:06:40.573Z,4.85
2023-04-06T19:09:08.756Z,5.50
2023-04-06T19:11:37.769Z,5.28
2023-04-06T19:14:05.957Z,4.93
2023-04-06T19:16:35.864Z,5.45
2023-04-06T19:19:13.749Z,4.70
2023-04-06T19:21:41.696Z,5.03
2023-04-06T19:24:13.235Z,5.40
2023-04-06T19:26:42.838Z,4.47
2023-04-06T19:29:11.290Z,5.28
2023-04-06T19:31:40.361Z,5.00
2023-04-06T19:34:08.785Z,4.80
2023-04-06T19:36:36.985Z,4.85
2023-04-06T19:39:05.043Z,5.82
2023-04-06T19:41:33.250Z,4.75
2023-04-06T19:44:01.652Z,6.18
2023-04-06T19:46:29.934Z,5.95
2023-04-06T19:48:58.067Z,5.88
2023-04-06T19:51:27.079Z,6.00
2023-04-06T19:53:58.077Z,5.97
2023-04-06T19:56:26.675Z,5.45
2023-04-06T19:58:55.189Z,5.40
2023-04-06T20:01:23.565Z,5.63
2023-04-06T20:03:51.971Z,5.57
2023-04-06T20:06:20.215Z,5.63
2023-04-06T20:08:48.451Z,5.72
2023-04-06T20:11:16.942Z,5.50
2023-04-06T20:13:45.343Z,5.65
2023-04-06T20:16:13.461Z,6.07
2023-04-06T20:18:41.615Z,6.32
2023-04-06T20:21:09.566Z,5.63
2023-04-06T20:23:38.156Z,5.68
2023-04-06T20:26:11.034Z,6.57
2023-04-06T20:28:39.618Z,5.57
2023-04-06T20:31:08.154Z,6.47
2023-04-06T20:33:37.547Z,6.72
2023-04-06T20:36:05.856Z,6.20
2023-04-06T20:38:34.484Z,5.93
2023-04-06T20:41:02.877Z,6.70
2023-04-06T20:43:31.961Z,5.82
2023-04-06T20:46:02.478Z,6.75
2023-04-06T20:48:33.619Z,5.95
2023-04-06T20:51:04.204Z,6.40
2023-04-06T20:53:32.801Z,6.32
2023-04-06T20:56:03.002Z,6.07
2023-04-06T20:58:36.522Z,6.25
2023-04-06T21:01:14.065Z,5.88
2023-04-06T21:03:43.085Z,6.68
2023-04-06T21:06:11.495Z,6.40
2023-04-06T21:08:39.659Z,6.68
2023-04-06T21:11:08.296Z,7.00
2023-04-06T21:13:36.691Z,6.30
2023-04-06T21:16:04.961Z,6.50
2023-04-06T21:18:35.320Z,7.07
2023-04-06T21:21:03.436Z,5.97
2023-04-06T21:23:31.975Z,6.47
2023-04-06T21:26:03.272Z,6.45
2023-04-06T21:28:31.433Z,6.53
2023-04-06T21:31:08.880Z,6.80
2023-04-06T21:33:37.108Z,6.75
2023-04-06T21:36:08.882Z,7.30
2023-04-06T21:38:37.103Z,6.90
2023-04-06T21:41:05.329Z,7.55
2023-04-06T21:43:33.311Z,7.45
2023-04-06T21:46:01.849Z,7.63
2023-04-06T21:48:32.299Z,7.50
2023-04-06T21:51:00.734Z,7.57
2023-04-06T21:53:29.056Z,7.50
2023-04-06T21:55:58.007Z,8.32
2023-04-06T21:58:26.295Z,9.40
2023-04-06T22:00:54.882Z,8.55
2023-04-06T22:03:23.482Z,7.40
2023-04-06T22:05:51.667Z,7.57
2023-04-06T22:08:32.787Z,8.00
2023-04-06T22:11:08.398Z,7.88
2023-04-06T22:13:38.156Z,8.18
2023-04-06T22:16:07.405Z,7.95
2023-04-06T22:18:38.898Z,7.55
2023-04-06T22:21:09.821Z,8.15
2023-04-06T22:23:42.784Z,8.18
2023-04-06T22:26:12.463Z,9.75
2023-04-06T22:28:40.901Z,8.65
2023-04-06T22:31:09.107Z,9.50
2023-04-06T22:33:37.418Z,8.35
2023-04-06T22:36:06.556Z,8.57
2023-04-06T22:38:34.692Z,8.25
2023-04-06T22:41:03.340Z,7.57
2023-04-06T22:43:31.614Z,8.52
2023-04-06T22:46:02.409Z,8.27
2023-04-06T22:48:30.676Z,8.20
2023-04-06T22:50:58.893Z,8.48
2023-04-06T22:53:27.613Z,7.90
2023-04-06T22:55:56.025Z,8.70
2023-04-06T22:58:24.164Z,9.07
2023-04-06T23:00:52.590Z,7.88
2023-04-06T23:03:21.043Z,8.15
2023-04-06T23:05:49.342Z,8.05
2023-04-06T23:08:17.715Z,8.57
2023-04-06T23:10:45.846Z,7.85
2023-04-06T23:13:14.175Z,7.60
2023-04-06T23:15:42.543Z,8.10
2023-04-06T23:18:11.104Z,7.82
2023-04-06T23:20:40.441Z,7.88
2023-04-06T23:23:08.813Z,7.72
2023-04-06T23:25:38.340Z,8.43
2023-04-06T23:28:06.504Z,7.95
2023-04-06T23:30:34.809Z,7.80
2023-04-06T23:33:03.299Z,8.45
2023-04-06T23:35:31.878Z,8.45
2023-04-06T23:38:00.359Z,7.85
2023-04-06T23:40:28.616Z,8.10
2023-04-06T23:42:56.741Z,7.18
2023-04-06T23:45:25.267Z,8.25
2023-04-06T23:47:53.627Z,7.60
2023-04-06T23:50:22.282Z,7.50
2023-04-06T23:52:50.342Z,8.05
2023-04-06T23:55:18.690Z,7.20
2023-04-06T23:57:49.594Z,7.95
